createdAt,value
2022-11-20T00:00:32.139Z,29.35
2022-11-20T00:02:58.845Z,18.08
2022-11-20T00:05:25.696Z,15.68
2022-11-20T00:07:52.423Z,12.02
2022-11-20T00:10:19.115Z,11.30
2022-11-20T00:12:45.845Z,10.77
2022-11-20T00:15:12.538Z,9.65
2022-11-20T00:17:39.231Z,10.25
2022-11-20T00:20:06.441Z,9.80
2022-11-20T00:22:33.152Z,10.35
2022-11-20T00:24:59.885Z,10.30
2022-11-20T00:27:26.588Z,10.10
2022-11-20T00:29:53.305Z,10.40
2022-11-20T00:32:20.013Z,10.32
2022-11-20T00:34:46.657Z,10.60
2022-11-20T00:37:13.343Z,10.57
2022-11-20T00:39:40.019Z,10.68
2022-11-20T00:42:06.754Z,11.20
2022-11-20T00:44:33.448Z,20.30
2022-11-20T00:47:00.175Z,23.48
2022-11-20T00:49:26.845Z,14.10
2022-11-20T00:51:53.520Z,15.88
2022-11-20T00:54:20.194Z,18.27
2022-11-20T00:56:46.879Z,16.00
2022-11-20T00:59:13.882Z,17.58
2022-11-20T01:01:40.656Z,15.10
2022-11-20T01:04:07.330Z,11.82
2022-11-20T01:06:36.588Z,10.82
2022-11-20T01:09:12.211Z,10.88
2022-11-20T01:11:42.231Z,10.38
2022-11-20T01:14:12.725Z,10.25
2022-11-20T01:16:50.813Z,9.73
2022-11-20T01:19:22.893Z,10.82
2022-11-20T01:21:52.024Z,9.70
2022-11-20T01:24:20.373Z,10.88
2022-11-20T01:26:49.564Z,10.45
2022-11-20T01:29:19.679Z,10.63
2022-11-20T01:31:46.731Z,10.18
2022-11-20T01:34:16.594Z,9.50
2022-11-20T01:36:44.031Z,9.88
2022-11-20T01:39:17.500Z,10.10
2022-11-20T01:42:11.792Z,11.38
2022-11-20T01:44:51.780Z,10.98
2022-11-20T01:47:24.241Z,9.90
2022-11-20T01:49:58.863Z,10.02
2022-11-20T01:52:35.532Z,10.63
2022-11-20T01:55:10.173Z,10.80
2022-11-20T01:57:37.579Z,10.65
2022-11-20T02:00:09.273Z,10.07
2022-11-20T02:02:37.347Z,10.35
2022-11-20T02:05:23.325Z,10.73
2022-11-20T02:07:51.497Z,11.05
2022-11-20T02:10:18.334Z,9.70
2022-11-20T02:13:04.413Z,9.88
2022-11-20T02:15:31.424Z,10.32
2022-11-20T02:17:58.354Z,9.63
2022-11-20T02:20:25.165Z,10.63
2022-11-20T02:23:09.610Z,9.98
2022-11-20T02:25:37.742Z,9.52
2022-11-20T02:28:05.873Z,9.80
2022-11-20T02:30:32.725Z,10.02
2022-11-20T02:32:59.685Z,10.15
2022-11-20T02:35:26.304Z,10.20
2022-11-20T02:37:57.232Z,9.43
2022-11-20T02:40:24.555Z,10.13
2022-11-20T02:42:55.689Z,9.65
2022-11-20T02:45:23.700Z,9.90
2022-11-20T02:47:50.917Z,9.77
2022-11-20T02:50:18.104Z,10.02
2022-11-20T02:52:45.802Z,8.95
2022-11-20T02:55:12.521Z,9.30
2022-11-20T02:57:39.164Z,9.70
2022-11-20T03:00:07.740Z,10.00
2022-11-20T03:02:34.849Z,10.18
2022-11-20T03:05:01.612Z,9.63
2022-11-20T03:07:28.460Z,9.88
2022-11-20T03:09:55.297Z,9.88
2022-11-20T03:12:21.950Z,9.82
2022-11-20T03:14:52.849Z,10.52
2022-11-20T03:17:19.920Z,10.30
2022-11-20T03:19:46.647Z,10.00
2022-11-20T03:22:13.347Z,9.77
2022-11-20T03:24:40.054Z,10.13
2022-11-20T03:27:06.851Z,9.55
2022-11-20T03:29:33.535Z,10.00
2022-11-20T03:32:00.193Z,8.80
2022-11-20T03:34:26.907Z,9.70
2022-11-20T03:36:53.592Z,10.23
2022-11-20T03:39:20.522Z,9.13
2022-11-20T03:41:47.410Z,9.75
2022-11-20T03:44:14.126Z,9.23
2022-11-20T03:46:40.891Z,9.93
2022-11-20T03:49:07.647Z,9.98
2022-11-20T03:51:36.575Z,9.60
2022-11-20T03:54:06.189Z,10.43
2022-11-20T03:56:35.173Z,10.15
2022-11-20T03:59:02.235Z,10.32
2022-11-20T04:01:34.648Z,9.77
2022-11-20T04:04:01.949Z,10.00
2022-11-20T04:06:35.417Z,9.88
2022-11-20T04:09:02.319Z,10.43
2022-11-20T04:11:31.647Z,9.80
2022-11-20T04:14:05.042Z,9.87
2022-11-20T04:16:34.472Z,9.60
2022-11-20T04:19:04.350Z,9.53
2022-11-20T04:21:31.766Z,9.32
2022-11-20T04:23:58.968Z,9.50
2022-11-20T04:26:28.474Z,10.00
2022-11-20T04:28:55.655Z,9.57
2022-11-20T04:31:25.249Z,9.40
2022-11-20T04:33:52.560Z,9.65
2022-11-20T04:36:21.824Z,10.00
2022-11-20T04:38:57.235Z,9.70
2022-11-20T04:41:29.565Z,9.55
2022-11-20T04:44:00.637Z,9.65
2022-11-20T04:46:28.804Z,8.98
2022-11-20T04:48:55.609Z,9.57
2022-11-20T04:51:22.973Z,10.00
2022-11-20T04:53:49.722Z,9.50
2022-11-20T04:56:17.226Z,9.80
2022-11-20T04:58:44.118Z,8.98
2022-11-20T05:01:25.159Z,9.50
2022-11-20T05:03:52.523Z,9.27
2022-11-20T05:06:22.905Z,9.98
2022-11-20T05:08:49.931Z,9.43
2022-11-20T05:11:21.531Z,9.60
2022-11-20T05:13:48.898Z,9.27
2022-11-20T05:16:23.969Z,9.15
2022-11-20T05:18:52.112Z,8.60
2022-11-20T05:21:19.321Z,9.30
2022-11-20T05:23:46.723Z,9.38
2022-11-20T05:26:17.625Z,9.68
2022-11-20T05:28:44.958Z,9.20
2022-11-20T05:31:20.746Z,9.52
2022-11-20T05:33:50.450Z,8.93
2022-11-20T05:36:17.506Z,9.23
2022-11-20T05:38:47.064Z,9.68
2022-11-20T05:41:19.222Z,9.48
2022-11-20T05:43:47.785Z,9.30
2022-11-20T05:46:15.985Z,9.45
2022-11-20T05:48:44.298Z,9.65
2022-11-20T05:51:13.761Z,9.00
2022-11-20T05:53:45.288Z,9.35
2022-11-20T05:56:17.953Z,9.10
2022-11-20T05:58:46.616Z,9.52
2022-11-20T06:01:22.473Z,8.85
2022-11-20T06:03:51.449Z,9.02
2022-11-20T06:06:19.623Z,10.27
2022-11-20T06:08:46.628Z,8.68
2022-11-20T06:11:14.626Z,9.57
2022-11-20T06:13:42.749Z,9.38
2022-11-20T06:16:10.789Z,8.63
2022-11-20T06:18:37.679Z,9.93
2022-11-20T06:21:07.733Z,9.70
2022-11-20T06:23:35.624Z,8.93
2022-11-20T06:26:04.226Z,8.98
2022-11-20T06:28:31.203Z,9.35
2022-11-20T06:30:58.326Z,9.23
2022-11-20T06:33:25.504Z,9.43
2022-11-20T06:35:58.489Z,10.27
2022-11-20T06:38:27.775Z,9.02
2022-11-20T06:40:54.910Z,9.75
2022-11-20T06:43:21.906Z,9.23
2022-11-20T06:45:57.039Z,10.18
2022-11-20T06:48:24.942Z,8.82
2022-11-20T06:50:51.655Z,9.77
2022-11-20T06:53:18.507Z,9.95
2022-11-20T06:55:47.634Z,9.52
2022-11-20T06:58:16.556Z,10.18
2022-11-20T07:00:43.862Z,10.27
2022-11-20T07:03:12.087Z,9.85
2022-11-20T07:05:39.504Z,9.82
2022-11-20T07:08:06.398Z,10.30
2022-11-20T07:10:33.692Z,9.73
2022-11-20T07:13:00.646Z,9.77
2022-11-20T07:15:27.593Z,10.32
2022-11-20T07:17:54.288Z,10.13
2022-11-20T07:20:21.024Z,9.60
2022-11-20T07:22:47.704Z,9.40
2022-11-20T07:25:14.507Z,10.10
2022-11-20T07:27:41.311Z,10.38
2022-11-20T07:30:08.357Z,9.85
2022-11-20T07:32:35.048Z,9.82
2022-11-20T07:35:01.738Z,9.68
2022-11-20T07:37:28.495Z,10.30
2022-11-20T07:39:55.178Z,10.68
2022-11-20T07:42:21.914Z,11.70
2022-11-20T07:44:48.578Z,10.82
2022-11-20T07:47:15.268Z,12.07
2022-11-20T07:49:41.936Z,12.38
2022-11-20T07:52:08.628Z,11.45
2022-11-20T07:54:35.433Z,12.15
2022-11-20T07:57:02.102Z,11.73
2022-11-20T07:59:28.766Z,10.27
2022-11-20T08:01:56.219Z,12.52
2022-11-20T08:04:24.366Z,13.27
2022-11-20T08:06:52.764Z,12.27
2022-11-20T08:09:19.651Z,12.30
2022-11-20T08:12:05.194Z,12.55
2022-11-20T08:14:31.940Z,14.55
2022-11-20T08:16:58.797Z,15.93
2022-11-20T08:19:25.481Z,13.82
2022-11-20T08:21:52.175Z,14.75
2022-11-20T08:24:18.886Z,14.25
2022-11-20T08:26:45.662Z,14.18
2022-11-20T08:29:12.483Z,13.73
2022-11-20T08:31:39.317Z,13.65
2022-11-20T08:34:09.246Z,13.57
2022-11-20T08:39:04.158Z,13.13
2022-11-20T08:41:34.002Z,13.30
2022-11-20T08:44:03.097Z,13.82
2022-11-20T08:46:34.914Z,13.82
2022-11-20T08:49:01.694Z,14.18
2022-11-20T08:51:28.515Z,13.60
2022-11-20T08:53:55.257Z,15.63
2022-11-20T08:56:21.968Z,15.25
2022-11-20T08:59:17.991Z,15.10
2022-11-20T09:01:35.978Z,14.20
2022-11-20T09:04:04.679Z,13.45
2022-11-20T09:06:31.413Z,15.15
2022-11-20T09:09:02.088Z,14.82
2022-11-20T09:11:31.770Z,15.82
2022-11-20T09:13:58.590Z,14.70
2022-11-20T09:16:25.242Z,15.63
2022-11-20T09:19:07.312Z,14.65
2022-11-20T09:21:38.724Z,14.98
2022-11-20T09:24:06.271Z,14.98
2022-11-20T09:26:33.076Z,14.50
2022-11-20T09:28:59.782Z,15.05
2022-11-20T09:31:29.868Z,14.60
2022-11-20T09:33:56.594Z,15.98
2022-11-20T09:36:23.340Z,14.70
2022-11-20T09:38:50.072Z,14.32
2022-11-20T09:41:31.532Z,14.35
2022-11-20T09:44:28.585Z,14.43
2022-11-20T09:47:09.128Z,14.48
2022-11-20T09:49:53.611Z,15.02
2022-11-20T09:52:46.682Z,15.93
2022-11-20T09:55:15.409Z,15.32
2022-11-20T09:57:46.894Z,14.45
2022-11-20T10:00:15.478Z,15.50
2022-11-20T10:02:45.940Z,15.77
2022-11-20T10:05:23.804Z,15.60
2022-11-20T10:08:01.103Z,14.88
2022-11-20T10:10:43.920Z,15.98
2022-11-20T10:13:41.235Z,15.63
2022-11-20T10:16:20.227Z,16.08
2022-11-20T10:19:14.960Z,15.25
2022-11-20T10:21:47.840Z,14.50
2022-11-20T10:24:33.142Z,16.98
2022-11-20T10:27:07.362Z,14.57
2022-11-20T10:29:39.097Z,15.38
2022-11-20T10:32:12.816Z,15.18
2022-11-20T10:34:51.928Z,15.77
2022-11-20T10:37:27.228Z,15.02
2022-11-20T10:40:05.665Z,16.25
2022-11-20T10:42:52.105Z,16.70
2022-11-20T10:45:30.400Z,16.05
2022-11-20T10:48:15.588Z,15.52
2022-11-20T10:50:58.504Z,16.75
2022-11-20T10:53:51.276Z,16.67
2022-11-20T10:56:36.570Z,16.88
2022-11-20T10:59:20.595Z,17.13
2022-11-20T11:01:47.465Z,16.80
2022-11-20T11:04:40.566Z,17.55
2022-11-20T11:07:18.968Z,18.15
2022-11-20T11:09:50.561Z,17.63
2022-11-20T11:12:17.594Z,16.98
2022-11-20T11:14:49.725Z,16.70
2022-11-20T11:17:27.965Z,17.55
2022-11-20T11:20:18.077Z,17.30
2022-11-20T11:22:50.369Z,16.85
2022-11-20T11:25:58.615Z,17.30
2022-11-20T11:28:27.157Z,17.15
2022-11-20T11:30:54.240Z,16.88
2022-11-20T11:33:32.108Z,18.20
2022-11-20T11:36:05.577Z,17.48
2022-11-20T11:38:37.199Z,18.63
2022-11-20T11:41:05.637Z,18.48
2022-11-20T11:43:56.099Z,18.05
2022-11-20T11:49:04.714Z,19.15
2022-11-20T11:51:40.226Z,18.85
2022-11-20T11:54:30.964Z,19.50
2022-11-20T11:57:04.443Z,18.08
2022-11-20T12:00:14.726Z,17.60
2022-11-20T12:02:49.363Z,18.70
2022-11-20T12:05:27.030Z,18.60
2022-11-20T12:08:12.815Z,18.80
2022-11-20T12:10:46.194Z,18.25
2022-11-20T12:13:35.837Z,20.15
2022-11-20T12:16:04.249Z,18.58
2022-11-20T12:18:31.664Z,20.73
2022-11-20T12:21:10.985Z,19.30
2022-11-20T12:23:51.135Z,19.38
2022-11-20T12:26:20.824Z,20.35
2022-11-20T12:28:59.864Z,19.48
2022-11-20T12:31:41.692Z,19.10
2022-11-20T12:34:22.655Z,19.23
2022-11-20T12:37:02.482Z,20.02
2022-11-20T12:39:35.002Z,19.13
2022-11-20T12:42:20.124Z,18.15
2022-11-20T12:45:11.774Z,19.15
2022-11-20T12:48:04.028Z,19.73
2022-11-20T12:54:00.071Z,19.90
2022-11-20T12:56:45.905Z,17.92
2022-11-20T12:59:40.242Z,18.85
2022-11-20T13:02:28.132Z,20.30
2022-11-20T13:05:22.674Z,19.50
2022-11-20T13:07:52.525Z,20.25
2022-11-20T13:10:30.743Z,21.55
2022-11-20T13:13:19.073Z,20.77
2022-11-20T13:15:51.413Z,21.15
2022-11-20T13:18:18.877Z,20.45
2022-11-20T13:20:46.681Z,20.02
2022-11-20T13:23:25.847Z,20.20
2022-11-20T13:26:03.470Z,19.38
2022-11-20T13:28:31.164Z,19.05
2022-11-20T13:30:59.668Z,20.08
2022-11-20T13:33:37.761Z,20.73
2022-11-20T13:36:06.342Z,20.13
2022-11-20T13:38:49.237Z,19.90
2022-11-20T13:41:32.281Z,20.27
2022-11-20T13:44:26.834Z,19.08
2022-11-20T13:46:53.613Z,20.33
2022-11-20T13:49:34.014Z,20.50
2022-11-20T13:54:56.848Z,22.90
2022-11-20T13:57:48.994Z,22.08
2022-11-20T14:00:26.659Z,21.17
2022-11-20T14:03:18.389Z,22.48
2022-11-20T14:05:56.778Z,21.35
2022-11-20T14:08:47.227Z,21.15
2022-11-20T14:14:01.729Z,20.02
2022-11-20T14:16:31.429Z,19.83
2022-11-20T14:19:18.128Z,20.02
2022-11-20T14:21:44.869Z,21.73
2022-11-20T14:24:13.338Z,21.67
2022-11-20T14:26:44.739Z,20.23
2022-11-20T14:29:20.153Z,20.42
2022-11-20T14:31:54.197Z,19.98
2022-11-20T14:34:33.499Z,20.92
2022-11-20T14:37:02.979Z,21.27
2022-11-20T14:39:36.165Z,22.47
2022-11-20T14:42:04.496Z,21.33
2022-11-20T14:44:34.928Z,20.73
2022-11-20T14:49:32.879Z,23.13
2022-11-20T14:52:01.410Z,21.30
2022-11-20T14:54:29.268Z,22.45
2022-11-20T14:56:58.205Z,19.75
2022-11-20T14:59:26.486Z,22.00
2022-11-20T15:02:03.769Z,20.85
2022-11-20T15:04:30.525Z,21.50
2022-11-20T15:07:01.357Z,21.67
2022-11-20T15:09:28.048Z,21.23
2022-11-20T15:12:03.322Z,20.50
2022-11-20T15:14:32.007Z,19.48
2022-11-20T15:16:59.263Z,20.65
2022-11-20T15:19:27.654Z,18.27
2022-11-20T15:21:54.444Z,19.92
2022-11-20T15:24:21.656Z,19.35
2022-11-20T15:26:49.768Z,19.50
2022-11-20T15:29:21.842Z,20.10
2022-11-20T15:31:48.587Z,20.27
2022-11-20T15:34:16.624Z,20.55
2022-11-20T15:36:44.665Z,21.10
2022-11-20T15:39:12.441Z,18.73
2022-11-20T15:41:39.949Z,19.58
2022-11-20T15:44:07.296Z,22.35
2022-11-20T15:46:40.842Z,20.17
2022-11-20T15:49:13.518Z,19.35
2022-11-20T15:51:44.480Z,19.50
2022-11-20T15:54:23.006Z,20.75
2022-11-20T15:56:53.236Z,19.23
2022-11-20T15:59:19.966Z,16.90
2022-11-20T16:01:46.789Z,18.23
2022-11-20T16:04:16.262Z,19.77
2022-11-20T16:06:43.318Z,25.67
2022-11-20T16:09:10.575Z,21.83
2022-11-20T16:11:37.614Z,18.40
2022-11-20T16:14:23.565Z,18.65
2022-11-20T16:16:50.411Z,17.63
2022-11-20T16:19:18.308Z,18.17
2022-11-20T16:21:46.079Z,16.77
2022-11-20T16:24:14.748Z,17.70
2022-11-20T16:26:42.089Z,17.13
2022-11-20T16:29:09.352Z,19.42
2022-11-20T16:31:36.250Z,17.08
2022-11-20T16:34:11.542Z,18.70
2022-11-20T16:36:43.257Z,18.08
2022-11-20T16:39:10.337Z,16.60
2022-11-20T16:41:37.373Z,16.17
2022-11-20T16:44:08.606Z,16.75
2022-11-20T16:46:35.531Z,16.75
2022-11-20T16:49:13.837Z,17.13
2022-11-20T16:51:40.990Z,17.13
2022-11-20T16:54:09.588Z,22.05
2022-11-20T16:56:36.513Z,23.77
2022-11-20T16:59:04.259Z,17.77
2022-11-20T17:01:31.813Z,17.40
2022-11-20T17:04:04.035Z,18.13
2022-11-20T17:06:40.389Z,21.63
2022-11-20T17:09:10.404Z,25.58
2022-11-20T17:11:37.857Z,19.70
2022-11-20T17:14:07.296Z,22.23
2022-11-20T17:16:35.553Z,20.97
2022-11-20T17:19:04.079Z,17.25
2022-11-20T17:21:32.443Z,18.88
2022-11-20T17:24:03.783Z,18.08
2022-11-20T17:26:31.133Z,18.25
2022-11-20T17:29:24.218Z,17.17
2022-11-20T17:31:50.974Z,18.33
2022-11-20T17:34:17.996Z,18.23
2022-11-20T17:36:46.537Z,18.05
2022-11-20T17:39:17.316Z,19.63
2022-11-20T17:41:44.448Z,19.98
2022-11-20T17:44:12.545Z,19.08
2022-11-20T17:46:39.845Z,21.55
2022-11-20T17:49:07.445Z,28.83
2022-11-20T17:51:35.235Z,22.30
2022-11-20T17:54:04.711Z,23.40
2022-11-20T17:56:51.665Z,19.70
2022-11-20T17:59:19.029Z,18.00
2022-11-20T18:01:45.974Z,19.85
2022-11-20T18:04:13.437Z,20.67
2022-11-20T18:06:40.868Z,19.10
2022-11-20T18:09:08.078Z,19.05
2022-11-20T18:11:37.804Z,20.27
2022-11-20T18:14:26.535Z,19.42
2022-11-20T18:17:13.654Z,21.88
2022-11-20T18:19:55.647Z,19.23
2022-11-20T18:22:29.768Z,22.58
2022-11-20T18:24:56.502Z,26.63
2022-11-20T18:27:23.904Z,24.88
2022-11-20T18:29:52.198Z,22.13
2022-11-20T18:32:20.419Z,19.77
2022-11-20T18:34:47.330Z,19.58
2022-11-20T18:37:16.387Z,19.23
2022-11-20T18:39:43.716Z,20.65
2022-11-20T18:42:33.479Z,22.40
2022-11-20T18:45:01.465Z,25.40
2022-11-20T18:47:31.970Z,25.88
2022-11-20T18:52:46.820Z,20.40
2022-11-20T18:55:13.965Z,24.02
2022-11-20T18:57:41.094Z,21.52
2022-11-20T19:00:09.855Z,22.27
2022-11-20T19:02:41.565Z,23.23
2022-11-20T19:05:14.573Z,21.95
2022-11-20T19:07:42.480Z,23.33
2022-11-20T19:10:09.547Z,23.83
2022-11-20T19:12:37.540Z,21.52
2022-11-20T19:15:04.922Z,23.65
2022-11-20T19:17:33.623Z,24.52
2022-11-20T19:20:00.426Z,23.35
2022-11-20T19:22:27.143Z,21.38
2022-11-20T19:24:53.823Z,21.88
2022-11-20T19:27:20.645Z,20.67
2022-11-20T19:29:47.334Z,19.98
2022-11-20T19:32:14.025Z,22.27
2022-11-20T19:34:41.567Z,20.23
2022-11-20T19:37:08.276Z,21.77
2022-11-20T19:39:36.745Z,20.40
2022-11-20T19:42:03.723Z,21.02
2022-11-20T19:44:30.488Z,20.25
2022-11-20T19:46:58.567Z,21.13
2022-11-20T19:49:25.702Z,20.98
2022-11-20T19:51:52.671Z,21.58
2022-11-20T19:54:19.405Z,21.73
2022-11-20T19:56:47.241Z,21.08
2022-11-20T19:59:15.148Z,21.13
2022-11-20T20:01:42.338Z,19.42
2022-11-20T20:04:09.174Z,19.05
2022-11-20T20:06:38.723Z,19.10
2022-11-20T20:09:08.375Z,19.77
2022-11-20T20:11:36.137Z,20.73
2022-11-20T20:14:04.409Z,20.60
2022-11-20T20:16:31.148Z,20.83
2022-11-20T20:19:01.237Z,20.27
2022-11-20T20:21:30.416Z,19.90
2022-11-20T20:23:57.819Z,20.77
2022-11-20T20:26:26.177Z,23.70
2022-11-20T20:28:53.003Z,21.52
2022-11-20T20:31:22.948Z,22.60
2022-11-20T20:33:49.873Z,22.52
2022-11-20T20:36:17.877Z,20.05
2022-11-20T20:38:45.983Z,20.73
2022-11-20T20:41:19.854Z,22.92
2022-11-20T20:44:05.357Z,21.00
2022-11-20T20:46:32.391Z,21.05
2022-11-20T20:48:59.733Z,22.67
2022-11-20T20:51:26.440Z,23.60
2022-11-20T20:53:53.923Z,20.67
2022-11-20T20:56:21.281Z,18.52
2022-11-20T20:58:47.990Z,18.52
2022-11-20T21:01:17.308Z,19.02
2022-11-20T21:03:44.300Z,19.60
2022-11-20T21:06:11.889Z,19.88
2022-11-20T21:08:41.168Z,20.90
2022-11-20T21:11:16.993Z,20.70
2022-11-20T21:13:45.387Z,20.17
2022-11-20T21:16:13.953Z,20.33
2022-11-20T21:18:41.107Z,20.27
2022-11-20T21:21:30.405Z,20.00
2022-11-20T21:23:57.279Z,20.40
2022-11-20T21:26:24.151Z,20.25
2022-11-20T21:28:50.956Z,20.00
2022-11-20T21:31:23.508Z,19.05
2022-11-20T21:33:51.642Z,18.70
2022-11-20T21:36:20.226Z,19.48
2022-11-20T21:38:47.616Z,21.45
2022-11-20T21:41:15.051Z,20.30
2022-11-20T21:43:44.756Z,23.17
2022-11-20T21:46:16.583Z,21.80
2022-11-20T21:48:45.005Z,21.52
2022-11-20T21:51:19.897Z,21.00
2022-11-20T21:53:47.904Z,19.90
2022-11-20T21:56:20.274Z,19.90
2022-11-20T21:58:48.044Z,21.50
2022-11-20T22:01:23.378Z,19.58
2022-11-20T22:03:56.741Z,20.70
2022-11-20T22:06:25.321Z,20.80
2022-11-20T22:08:52.075Z,21.08
2022-11-20T22:11:20.827Z,20.50
2022-11-20T22:14:06.697Z,21.02
2022-11-20T22:16:37.253Z,19.95
2022-11-20T22:19:04.814Z,21.63
2022-11-20T22:21:32.235Z,21.70
2022-11-20T22:23:59.576Z,19.40
2022-11-20T22:26:28.781Z,21.40
2022-11-20T22:28:58.192Z,19.88
2022-11-20T22:31:28.052Z,21.38
2022-11-20T22:33:55.323Z,24.23
2022-11-20T22:36:24.450Z,24.85
2022-11-20T22:38:51.441Z,23.13
2022-11-20T22:41:20.770Z,21.52
2022-11-20T22:43:47.709Z,19.98
2022-11-20T22:46:19.420Z,20.85
2022-11-20T22:48:52.247Z,22.05
2022-11-20T22:51:21.005Z,24.73
2022-11-20T22:53:47.988Z,21.45
2022-11-20T22:56:16.030Z,20.63
2022-11-20T22:58:45.348Z,21.55
2022-11-20T23:01:14.806Z,21.27
2022-11-20T23:03:43.438Z,21.43
2022-11-20T23:06:10.714Z,20.75
2022-11-20T23:08:38.532Z,20.95
2022-11-20T23:11:07.696Z,21.40
2022-11-20T23:13:35.449Z,20.25
2022-11-20T23:16:04.912Z,20.60
2022-11-20T23:18:32.169Z,21.50
2022-11-20T23:21:10.537Z,22.17
2022-11-20T23:23:37.572Z,21.80
2022-11-20T23:26:06.384Z,21.75
2022-11-20T23:28:33.339Z,20.88
2022-11-20T23:31:01.024Z,20.63
2022-11-20T23:33:27.796Z,21.52
2022-11-20T23:35:54.873Z,21.77
2022-11-20T23:38:21.651Z,21.27
2022-11-20T23:40:52.283Z,22.58
2022-11-20T23:43:20.967Z,21.83
2022-11-20T23:45:53.061Z,21.70
2022-11-20T23:48:21.264Z,20.60
2022-11-20T23:50:48.244Z,23.10
2022-11-20T23:53:16.204Z,22.52
2022-11-20T23:55:47.585Z,21.65
2022-11-20T23:58:14.696Z,21.35
